Time;durP1;ratioP1;P1;durP2;ratioP2;P2;SDS_P1;SDS_P2;PMS_P1;PMS_P2;Temp;Humidity;BMP_temperature;BMP_pressure;BME280_temperature;BME280_humidity;BME280_pressure;Samples;Min_cycle;Max_cycle;Signal;HPM_P1;HPM_P2
2022/11/06 00:00:37;;;;;;;11.80;7.37;;;6.50;99.90;;;-141.84;81.43;18856.72;5032186;28;20226;-63
2022/11/06 00:03:07;;;;;;;8.67;7.30;;;6.40;99.90;;;-141.84;81.80;18799.81;5032556;28;20574;-63
2022/11/06 00:08:33;;;;;;;10.20;7.50;;;6.30;99.90;;;-141.84;83.05;18824.22;5032046;28;20225;-62
2022/11/06 00:11:08;;;;;;;13.10;7.63;;;6.30;99.90;;;-141.84;82.11;18828.28;5031952;28;20221;-63
2022/11/06 00:13:37;;;;;;;9.33;6.90;;;6.30;99.90;;;-141.84;82.37;18785.59;5032141;28;20304;-61
2022/11/06 00:16:08;;;;;;;10.43;7.27;;;6.20;99.90;;;-141.84;81.87;18838.44;5032366;28;20194;-62
2022/11/06 00:18:37;;;;;;;11.53;7.87;;;6.30;99.90;;;-141.84;82.01;18816.06;5032107;28;20229;-62
2022/11/06 00:21:12;;;;;;;8.93;6.83;;;6.20;99.90;;;-141.84;82.09;18797.78;5031676;28;20317;-62
2022/11/06 00:23:41;;;;;;;10.13;7.50;;;6.20;99.90;;;-141.84;82.94;18797.78;5031744;28;20233;-62
2022/11/06 00:26:13;;;;;;;9.77;7.67;;;6.20;99.90;;;-141.84;83.50;18759.19;5031817;28;20233;-65
2022/11/06 00:28:41;;;;;;;11.10;7.53;;;6.00;99.90;;;-141.84;83.96;18757.16;5031698;28;20465;-64
2022/11/06 00:31:13;;;;;;;10.27;7.60;;;6.10;99.90;;;-141.84;83.82;18763.25;5031875;28;20202;-65
2022/11/06 00:33:41;;;;;;;11.73;7.20;;;6.10;99.90;;;-141.84;84.02;18805.91;5012195;28;20765;-65
2022/11/06 00:36:13;;;;;;;9.53;6.73;;;6.00;99.90;;;-141.84;83.97;18767.31;5011798;28;20241;-67
2022/11/06 00:38:42;;;;;;;11.27;7.60;;;6.00;99.90;;;-141.84;83.98;18803.88;5007656;28;20281;-66
2022/11/06 00:41:13;;;;;;;9.87;7.50;;;6.10;99.90;;;-141.84;83.57;18797.78;5011801;28;20227;-62
2022/11/06 00:43:42;;;;;;;7.43;6.53;;;6.00;99.90;;;-141.84;83.54;18785.59;5011747;28;20717;-62
2022/11/06 00:46:12;;;;;;;11.60;7.47;;;6.10;99.90;;;-141.84;82.45;18779.50;4992177;28;20235;-61
2022/11/06 00:48:41;;;;;;;9.63;7.30;;;6.10;99.90;;;-141.84;82.23;18807.94;5012045;28;20215;-62
2022/11/06 00:51:14;;;;;;;9.20;7.47;;;6.10;99.90;;;-141.84;83.32;18795.75;5011285;28;20761;-61
2022/11/06 00:53:45;;;;;;;8.80;7.20;;;6.10;99.90;;;-141.84;83.91;18791.69;5011272;28;20242;-63
2022/11/06 00:56:17;;;;;;;11.50;7.40;;;6.10;99.90;;;-141.84;83.34;18751.06;5011201;28;20283;-63
2022/11/06 00:58:46;;;;;;;10.83;7.67;;;6.00;99.90;;;-141.84;83.52;18773.41;5010586;28;20582;-60
2022/11/06 01:01:18;;;;;;;9.63;7.37;;;6.00;99.90;;;-141.84;84.32;18793.72;5011469;28;20224;-62
2022/11/06 01:03:51;;;;;;;10.83;6.87;;;5.90;99.90;;;-141.84;84.66;18761.22;5012010;28;20341;-62
2022/11/06 01:06:23;;;;;;;9.87;6.80;;;5.90;99.90;;;-141.84;85.33;18761.22;5011396;28;20241;-61
2022/11/06 01:08:53;;;;;;;9.90;6.87;;;5.80;99.90;;;-141.84;85.13;18726.69;5027826;28;20226;-62
2022/11/06 01:11:25;;;;;;;9.30;6.90;;;5.80;99.90;;;-141.84;85.63;18759.19;5030825;28;20713;-61
2022/11/06 01:13:57;;;;;;;10.03;7.63;;;5.70;99.90;;;-141.84;86.19;18722.63;5031008;28;20229;-62
2022/11/06 01:16:27;;;;;;;11.90;7.73;;;5.70;99.90;;;-141.84;86.70;18716.53;5031056;28;20186;-62
2022/11/06 01:18:57;;;;;;;9.73;7.43;;;5.70;99.90;;;-141.84;86.89;18728.72;5031551;28;20206;-62
2022/11/06 01:21:29;;;;;;;10.57;7.90;;;5.70;99.90;;;-141.84;86.64;18742.94;5030685;28;20236;-61
2022/11/06 01:24:00;;;;;;;8.57;7.23;;;5.70;99.90;;;-141.84;85.39;18751.06;5030944;28;20226;-62
2022/11/06 01:26:30;;;;;;;10.80;8.00;;;5.70;99.90;;;-141.84;85.16;18763.25;5030771;28;20647;-62
2022/11/06 01:29:18;;;;;;;10.93;8.00;;;5.80;99.90;;;-141.84;84.85;18769.34;5030727;28;20225;-61
2022/11/06 01:31:48;;;;;;;9.60;7.87;;;5.80;99.90;;;-141.84;84.47;18773.41;5017788;28;20409;-62
2022/11/06 01:34:18;;;;;;;10.50;7.47;;;5.90;99.90;;;-141.84;84.91;18773.41;5011143;28;20191;-61
2022/11/06 01:36:47;;;;;;;9.17;7.40;;;5.80;99.90;;;-141.84;85.08;18740.91;5015642;28;20190;-62
2022/11/06 01:39:16;;;;;;;8.60;7.33;;;5.90;99.90;;;-141.84;85.48;18736.84;5030448;28;20226;-61
2022/11/06 01:41:47;;;;;;;12.73;7.43;;;5.80;99.90;;;-141.84;84.67;18755.13;5029986;28;20252;-63
2022/11/06 01:45:07;;;;;;;11.20;7.80;;;5.90;99.90;;;-141.84;84.89;18757.16;5030289;28;20230;-64
2022/11/06 01:47:35;;;;;;;9.83;7.30;;;5.90;99.90;;;-141.84;84.13;18769.34;5030367;28;20222;-62
2022/11/06 01:50:08;;;;;;;12.43;7.33;;;5.90;99.90;;;-141.84;83.79;18775.44;5030590;28;20244;-64
2022/11/06 01:52:38;;;;;;;10.30;7.60;;;6.00;99.90;;;-141.84;83.78;18771.38;5030092;28;20225;-63
2022/11/06 01:55:14;;;;;;;9.87;7.00;;;6.00;99.90;;;-141.84;84.21;18734.81;5031160;28;20186;-63
2022/11/06 01:57:43;;;;;;;12.13;7.40;;;6.00;99.90;;;-141.84;84.21;18763.25;5010670;28;20210;-62
2022/11/06 02:00:13;;;;;;;11.20;7.40;;;6.00;99.90;;;-141.84;84.37;18753.09;5010527;28;20222;-62
2022/11/06 02:02:42;;;;;;;12.83;7.87;;;5.90;99.90;;;-141.84;84.00;18777.47;5010553;28;20296;-63
2022/11/06 02:05:10;;;;;;;12.07;7.60;;;5.90;99.90;;;-141.84;83.41;18769.34;5010709;28;20241;-62
2022/11/06 02:07:43;;;;;;;10.23;7.50;;;5.90;99.90;;;-141.84;83.06;18755.13;5003544;28;20231;-63
2022/11/06 02:10:11;;;;;;;11.80;6.77;;;5.90;99.90;;;-141.84;83.63;18763.25;4993584;28;20210;-62
2022/11/06 02:12:52;;;;;;;9.70;7.30;;;5.90;99.90;;;-141.84;84.20;18761.22;4994781;28;20231;-62
2022/11/06 02:15:34;;;;;;;9.27;7.43;;;5.80;99.90;;;-141.84;83.99;18757.16;5012229;28;20222;-63
2022/11/06 02:18:43;;;;;;;11.23;7.47;;;5.80;99.90;;;-141.84;83.97;18732.78;5014390;28;20736;-63
2022/11/06 02:21:37;;;;;;;11.87;7.83;;;5.80;99.90;;;-141.84;83.76;18747.00;5014520;28;20238;-62
2022/11/06 02:24:36;;;;;;;10.83;7.40;;;5.90;99.90;;;-141.84;84.13;18769.34;5014020;28;20241;-62
2022/11/06 02:27:12;;;;;;;10.53;7.80;;;5.80;99.90;;;-141.84;83.31;18751.06;5014149;28;20237;-64
2022/11/06 02:29:55;;;;;;;11.57;7.70;;;5.80;99.90;;;-141.84;83.33;18783.56;5014399;28;20226;-63
2022/11/06 02:32:32;;;;;;;12.83;7.80;;;5.90;99.90;;;-141.84;83.27;18767.31;5014327;28;20226;-62
2022/11/06 02:35:10;;;;;;;11.43;8.27;;;5.90;99.90;;;-141.84;83.66;18749.03;5014293;28;20250;-62
2022/11/06 02:37:43;;;;;;;8.73;7.23;;;5.90;99.90;;;-141.84;83.31;18763.25;5025441;28;20372;-63
2022/11/06 02:40:15;;;;;;;11.53;7.23;;;5.90;99.90;;;-141.84;84.18;18751.06;5034195;28;20664;-63
2022/11/06 02:42:50;;;;;;;13.37;8.00;;;5.80;99.90;;;-141.84;84.76;18751.06;5034104;28;20221;-62
2022/11/06 02:45:21;;;;;;;13.20;7.83;;;5.80;99.90;;;-141.84;85.09;18744.97;5033636;28;20735;-63
2022/11/06 02:47:54;;;;;;;11.87;8.17;;;5.70;99.90;;;-141.84;85.19;18761.22;5033723;28;20234;-62
2022/11/06 02:50:32;;;;;;;11.37;7.97;;;5.80;99.90;;;-141.84;84.62;18749.03;5033854;28;20241;-62
2022/11/06 02:53:06;;;;;;;10.03;8.07;;;5.80;99.90;;;-141.84;84.69;18779.50;5033363;28;20253;-62
2022/11/06 02:55:41;;;;;;;13.80;8.10;;;5.80;99.90;;;-141.84;84.95;18751.06;5033481;28;20233;-63
2022/11/06 02:58:17;;;;;;;9.43;7.93;;;5.80;99.90;;;-141.84;84.06;18761.22;5033823;28;20236;-62
2022/11/06 03:00:54;;;;;;;12.33;8.53;;;5.90;99.90;;;-141.84;84.06;18771.38;5033959;28;20214;-63
2022/11/06 03:03:28;;;;;;;12.20;7.93;;;5.90;99.90;;;-141.84;84.37;18763.25;5033330;28;20240;-64
2022/11/06 03:06:04;;;;;;;12.20;8.37;;;5.90;99.90;;;-141.84;84.78;18730.75;5033314;28;20249;-63
2022/11/06 03:08:41;;;;;;;12.17;7.83;;;5.80;99.90;;;-141.84;85.46;18749.03;5032928;28;20240;-63
2022/11/06 03:11:18;;;;;;;11.23;7.73;;;5.80;99.90;;;-141.84;85.48;18720.59;5033310;28;20241;-63
2022/11/06 03:13:58;;;;;;;10.90;8.00;;;5.80;99.90;;;-141.84;85.30;18708.41;5032773;28;20225;-63
2022/11/06 03:16:40;;;;;;;9.83;7.77;;;5.80;99.90;;;-141.84;86.04;18759.19;5032887;28;20663;-62
2022/11/06 03:19:21;;;;;;;11.37;7.73;;;5.80;99.90;;;-141.84;86.04;18744.97;5033569;28;20186;-63
2022/11/06 03:22:02;;;;;;;13.00;7.60;;;5.70;99.90;;;-141.84;84.72;18765.28;5032532;28;20618;-62
2022/11/06 03:24:40;;;;;;;11.73;8.37;;;5.80;99.90;;;-141.84;85.04;18769.34;5032452;28;20229;-62
2022/11/06 03:27:16;;;;;;;13.13;8.17;;;5.80;99.90;;;-141.84;84.18;18753.09;5033126;28;20230;-63
2022/11/06 03:29:50;;;;;;;12.27;8.67;;;5.90;99.90;;;-141.84;83.89;18757.16;5032381;28;20232;-63
2022/11/06 03:32:28;;;;;;;12.10;8.10;;;5.90;99.90;;;-141.84;84.34;18704.31;5032913;28;20819;-63
2022/11/06 03:35:06;;;;;;;12.43;8.93;;;5.80;99.90;;;-141.84;85.08;18736.84;5032770;28;20248;-62
2022/11/06 03:37:42;;;;;;;12.07;8.60;;;5.70;99.90;;;-141.84;85.72;18716.53;5032749;28;20228;-63
2022/11/06 03:40:17;;;;;;;12.90;8.63;;;5.70;99.90;;;-141.84;85.92;18744.97;5033327;28;20178;-62
2022/11/06 03:42:47;;;;;;;11.23;8.77;;;5.70;99.90;;;-141.84;86.23;18724.66;5032970;28;20214;-63
2022/11/06 03:45:23;;;;;;;12.43;8.83;;;5.70;99.90;;;-141.84;85.46;18718.56;5032297;28;20237;-62
2022/11/06 03:47:59;;;;;;;11.13;8.40;;;5.70;99.90;;;-141.84;84.64;18734.81;5032939;28;20252;-62
2022/11/06 03:50:33;;;;;;;12.30;8.90;;;5.80;99.90;;;-141.84;85.02;18710.44;5032458;28;20636;-63
2022/11/06 03:53:09;;;;;;;13.37;8.73;;;5.70;99.90;;;-141.84;84.94;18712.47;5032538;28;20325;-62
2022/11/06 03:55:46;;;;;;;14.70;8.63;;;5.80;99.90;;;-141.84;85.50;18744.97;5032846;28;20323;-63
2022/11/06 03:58:23;;;;;;;12.60;8.67;;;5.70;99.90;;;-141.84;85.59;18706.38;5032397;28;20190;-64
2022/11/06 04:00:55;;;;;;;12.80;8.93;;;5.60;99.90;;;-141.84;85.72;18720.59;5032716;28;20647;-65
2022/11/06 04:03:30;;;;;;;13.10;9.27;;;5.60;99.90;;;-141.84;85.01;18728.72;5032316;28;20248;-62
2022/11/06 04:06:07;;;;;;;13.63;9.57;;;5.70;99.90;;;-141.84;84.78;18700.25;5032338;28;20232;-63
2022/11/06 04:14:19;;;;;;;14.07;9.73;;;5.70;99.90;;;-141.84;86.06;18722.63;5031946;28;20230;-63
2022/11/06 04:16:54;;;;;;;14.07;9.17;;;5.60;99.90;;;-141.84;86.16;18692.13;5032222;28;20225;-61
2022/11/06 04:19:24;;;;;;;11.33;8.73;;;5.60;99.90;;;-141.84;85.79;18736.84;5032092;28;20252;-64
2022/11/06 04:22:21;;;;;;;13.87;10.13;;;5.60;99.90;;;-141.84;85.81;18730.75;5032604;28;20201;-63
2022/11/06 04:28:15;;;;;;;13.13;8.40;;;5.50;99.90;;;-141.84;86.35;18710.44;5031976;28;20229;-62
2022/11/06 04:31:04;;;;;;;16.50;9.70;;;5.50;99.90;;;-141.84;86.89;18677.91;5031493;28;20229;-62
2022/11/06 04:33:45;;;;;;;14.97;10.03;;;5.40;99.90;;;-141.84;86.67;18681.97;5031953;28;20279;-62
2022/11/06 04:36:27;;;;;;;15.07;10.00;;;5.40;99.90;;;-141.84;86.56;18730.75;5031479;28;20794;-63
2022/11/06 04:39:06;;;;;;;13.97;10.00;;;5.50;99.90;;;-141.84;85.47;18694.16;5031487;28;20225;-63
2022/11/06 04:41:43;;;;;;;14.03;10.00;;;5.50;99.90;;;-141.84;84.80;18724.66;5031674;28;20229;-63
2022/11/06 04:44:19;;;;;;;12.87;8.70;;;5.60;99.90;;;-141.84;84.30;18724.66;5031340;28;20236;-64
2022/11/06 04:46:55;;;;;;;12.70;9.10;;;5.60;99.90;;;-141.84;84.76;18710.44;5031553;28;20221;-63
2022/11/06 04:49:29;;;;;;;13.07;8.90;;;5.60;99.90;;;-141.84;84.51;18714.50;5031278;28;20641;-61
2022/11/06 04:51:59;;;;;;;12.90;9.97;;;5.60;99.90;;;-141.84;84.35;18742.94;5031869;28;20287;-62
2022/11/06 04:54:28;;;;;;;14.03;9.93;;;5.60;99.90;;;-141.84;84.58;18744.97;5031234;28;20241;-62
2022/11/06 04:56:59;;;;;;;14.00;9.57;;;5.60;99.90;;;-141.84;84.92;18712.47;5031166;28;20229;-63
2022/11/06 04:59:30;;;;;;;15.40;10.07;;;5.60;99.90;;;-141.84;85.36;18726.69;5031168;28;20719;-61
2022/11/06 05:01:58;;;;;;;13.67;9.20;;;5.60;99.90;;;-141.84;85.75;18702.28;5031073;28;20601;-62
2022/11/06 05:04:28;;;;;;;16.87;10.53;;;5.60;99.90;;;-141.84;85.32;18728.72;5031394;28;20209;-61
2022/11/06 05:06:56;;;;;;;15.30;9.73;;;5.90;99.90;;;-141.84;84.99;18736.84;5031658;28;20208;-62
2022/11/06 05:09:24;;;;;;;14.93;9.50;;;5.60;99.90;;;-141.84;85.19;18724.66;5031498;28;20226;-63
2022/11/06 05:11:52;;;;;;;13.23;9.23;;;5.60;99.90;;;-141.84;85.16;18708.41;5030956;28;20222;-63
2022/11/06 05:14:20;;;;;;;15.07;9.47;;;5.60;99.90;;;-141.84;85.25;18724.66;5030932;28;20229;-64
2022/11/06 05:16:48;;;;;;;12.67;9.07;;;5.60;99.90;;;-141.84;85.33;18712.47;5031268;28;20228;-62
2022/11/06 05:19:16;;;;;;;12.33;9.93;;;5.50;99.90;;;-141.84;85.62;18712.47;5031209;28;20248;-64
2022/11/06 05:24:35;;;;;;;14.27;9.87;;;5.50;99.90;;;-141.84;85.10;18718.56;5031010;28;20267;-63
2022/11/06 05:27:03;;;;;;;13.30;9.27;;;5.50;99.90;;;-141.84;85.39;18724.66;5030123;28;20243;-62
2022/11/06 05:29:31;;;;;;;12.97;9.10;;;5.50;99.90;;;-141.84;85.02;18679.94;5030831;28;20230;-63
2022/11/06 05:31:59;;;;;;;14.83;9.87;;;5.50;99.90;;;-141.84;85.68;18686.03;5030538;28;20229;-62
2022/11/06 05:34:27;;;;;;;13.03;9.53;;;5.50;99.90;;;-141.84;86.05;18700.25;5030671;28;20210;-62
2022/11/06 05:36:57;;;;;;;12.17;9.73;;;5.50;99.90;;;-141.84;86.09;18710.44;5030612;28;20198;-62
2022/11/06 05:39:25;;;;;;;14.40;9.37;;;5.50;99.90;;;-141.84;86.00;18724.66;5030780;28;20230;-62
2022/11/06 05:41:53;;;;;;;14.40;9.83;;;5.50;99.90;;;-141.84;85.57;18696.19;5030404;28;20621;-64
2022/11/06 05:44:21;;;;;;;15.40;9.83;;;5.50;99.90;;;-141.84;85.03;18712.47;5029827;28;20233;-63
2022/11/06 05:46:49;;;;;;;11.90;9.07;;;5.50;99.90;;;-141.84;84.55;18775.44;5030492;28;20237;-63
2022/11/06 05:49:18;;;;;;;12.90;9.60;;;5.60;99.90;;;-141.84;84.15;18690.09;5030574;28;20202;-62
2022/11/06 05:51:47;;;;;;;14.07;10.10;;;5.60;99.90;;;-141.84;84.30;18708.41;5030840;28;20222;-64
2022/11/06 05:54:16;;;;;;;12.53;8.80;;;5.60;99.90;;;-141.84;84.62;18684.00;5030080;28;20605;-63
2022/11/06 05:56:44;;;;;;;14.13;9.63;;;5.50;99.90;;;-141.84;84.18;18700.25;5030086;28;20727;-63
2022/11/06 05:59:12;;;;;;;12.73;10.03;;;5.60;99.90;;;-141.84;84.09;18734.81;5030170;28;20709;-63
2022/11/06 06:01:41;;;;;;;11.30;8.97;;;5.60;99.90;;;-141.84;83.87;18712.47;5029928;28;20725;-63
2022/11/06 06:04:09;;;;;;;13.53;9.30;;;5.60;99.90;;;-141.84;83.88;18749.03;5030671;28;20296;-62
2022/11/06 06:06:38;;;;;;;12.47;9.60;;;5.60;99.90;;;-141.84;82.21;18775.44;5030026;28;20234;-62
2022/11/06 06:09:06;;;;;;;13.20;9.57;;;5.70;99.90;;;-141.84;82.61;18716.53;5030290;28;20241;-62
2022/11/06 06:11:35;;;;;;;12.70;9.57;;;5.80;99.90;;;-141.84;82.51;18744.97;5030040;28;20233;-63
2022/11/06 06:14:03;;;;;;;12.17;9.13;;;5.70;99.90;;;-141.84;82.35;18724.66;5029949;28;20230;-62
2022/11/06 06:16:32;;;;;;;13.73;9.17;;;5.70;99.90;;;-141.84;82.58;18728.72;5030138;28;20213;-62
2022/11/06 06:19:00;;;;;;;12.83;9.17;;;5.70;99.90;;;-141.84;82.78;18738.88;5030776;28;20209;-62
2022/11/06 06:21:28;;;;;;;13.20;9.57;;;5.70;99.90;;;-141.84;82.88;18720.59;5029803;28;20597;-62
2022/11/06 06:23:56;;;;;;;11.33;8.27;;;5.70;99.90;;;-141.84;82.31;18718.56;5029879;28;20720;-63
2022/11/06 06:26:24;;;;;;;14.13;8.77;;;5.80;99.90;;;-141.84;81.20;18777.47;5030179;28;20225;-63
2022/11/06 06:28:54;;;;;;;9.93;7.90;;;5.80;99.90;;;-141.84;80.63;18755.13;5030288;28;20236;-62
2022/11/06 06:31:22;;;;;;;12.07;8.67;;;5.90;99.90;;;-141.84;79.74;18769.34;5030064;28;20226;-62
2022/11/06 06:33:50;;;;;;;12.97;8.70;;;6.00;99.90;;;-141.84;78.72;18801.84;5030360;28;20202;-63
2022/11/06 06:36:18;;;;;;;12.10;8.53;;;6.10;99.90;;;-141.84;78.45;18830.31;5029897;28;20226;-62
2022/11/06 06:38:46;;;;;;;11.50;9.17;;;6.20;99.90;;;-141.84;79.12;18785.59;5029684;28;20226;-63
2022/11/06 06:41:14;;;;;;;12.87;8.87;;;6.10;99.90;;;-141.84;79.60;18785.59;5030222;28;20234;-62
2022/11/06 06:43:42;;;;;;;13.27;8.37;;;6.20;99.90;;;-141.84;79.64;18787.63;5029725;28;20751;-63
2022/11/06 06:46:12;;;;;;;12.27;8.67;;;6.20;99.90;;;-141.84;78.71;18832.34;5030367;28;20240;-62
2022/11/06 06:48:40;;;;;;;11.80;8.53;;;6.20;99.90;;;-141.84;78.11;18803.88;5030061;28;20229;-63
2022/11/06 06:51:08;;;;;;;11.40;8.30;;;6.30;99.90;;;-141.84;78.48;18820.16;5029834;28;20226;-62
2022/11/06 06:53:36;;;;;;;8.60;7.63;;;6.30;99.90;;;-141.84;78.43;18834.38;5029623;28;20228;-65
2022/11/06 06:56:05;;;;;;;11.13;8.30;;;6.40;99.90;;;-141.84;76.94;18830.31;5030612;28;20221;-62
2022/11/06 06:58:34;;;;;;;10.27;8.27;;;6.40;99.90;;;-141.84;76.32;18891.25;5033274;28;20237;-62
2022/11/06 07:01:03;;;;;;;12.60;9.20;;;6.50;99.90;;;-141.84;76.45;18879.06;5033958;28;20210;-63
2022/11/06 07:03:33;;;;;;;11.50;7.50;;;6.50;99.90;;;-141.84;76.74;18834.38;5033143;28;20678;-64
2022/11/06 07:06:01;;;;;;;10.97;7.53;;;6.60;99.90;;;-141.84;77.10;18868.91;5033383;28;20226;-64
2022/11/06 07:08:30;;;;;;;11.00;8.43;;;6.60;99.90;;;-141.84;76.86;18875.00;5032852;28;20237;-62
2022/11/06 07:11:01;;;;;;;9.97;8.47;;;6.70;99.90;;;-141.84;77.00;18848.59;5033352;28;20225;-64
2022/11/06 07:13:30;;;;;;;11.37;8.13;;;6.70;99.90;;;-141.84;77.16;18834.38;5033334;28;20229;-62
2022/11/06 07:16:03;;;;;;;8.63;7.17;;;6.70;99.90;;;-141.84;76.14;18858.75;5033852;28;20193;-62
2022/11/06 07:18:34;;;;;;;10.83;8.77;;;6.80;99.90;;;-141.84;76.28;18856.72;5032638;28;20217;-63
2022/11/06 07:21:05;;;;;;;10.57;8.13;;;6.90;99.90;;;-141.84;76.61;18877.03;5033356;28;20292;-63
2022/11/06 07:23:34;;;;;;;9.40;7.60;;;7.00;99.90;;;-141.84;76.21;18875.00;5032668;28;20234;-62
2022/11/06 07:26:03;;;;;;;10.30;7.80;;;7.00;99.90;;;-141.84;75.18;18883.13;5032948;28;20321;-63
2022/11/06 07:28:32;;;;;;;10.50;6.67;;;7.10;99.90;;;-141.84;74.98;18913.59;5032944;28;20571;-64
2022/11/06 07:31:01;;;;;;;12.70;7.30;;;7.20;99.90;;;-141.84;74.39;18913.59;5033448;28;20213;-63
2022/11/06 07:33:29;;;;;;;8.00;7.00;;;7.20;99.90;;;-141.84;74.01;18913.59;5032959;28;20237;-63
2022/11/06 07:36:04;;;;;;;9.07;6.73;;;7.30;99.90;;;-141.84;73.53;18935.97;5032837;28;20689;-64
2022/11/06 07:38:34;;;;;;;10.63;6.90;;;7.30;99.90;;;-141.84;72.94;18968.47;5032261;28;20630;-63
2022/11/06 07:41:03;;;;;;;8.70;6.53;;;7.40;99.90;;;-141.84;72.54;18964.41;5032754;28;20226;-64
2022/11/06 07:43:32;;;;;;;9.20;6.57;;;7.50;99.90;;;-141.84;72.34;18944.09;5032685;28;20214;-64
2022/11/06 07:46:03;;;;;;;11.90;6.90;;;7.60;99.90;;;-141.84;71.53;18992.84;5033151;28;20241;-64
2022/11/06 07:48:32;;;;;;;8.20;6.90;;;7.70;99.90;;;-141.84;71.20;19013.16;5032627;28;20229;-63
2022/11/06 07:51:06;;;;;;;8.77;6.57;;;7.70;99.90;;;-141.84;70.91;19021.31;5032569;28;20230;-64
2022/11/06 07:53:34;;;;;;;8.87;7.10;;;7.80;99.90;;;-141.84;70.46;19041.63;5032497;28;20321;-65
2022/11/06 07:56:03;;;;;;;11.10;6.83;;;7.80;99.90;;;-141.84;69.56;19066.00;5032480;28;20226;-62
2022/11/06 07:58:33;;;;;;;8.83;6.50;;;7.90;99.90;;;-141.84;69.29;19047.72;5032357;28;20573;-62
2022/11/06 08:01:01;;;;;;;7.93;6.83;;;8.00;99.90;;;-141.84;69.14;19043.66;5032951;28;20210;-63
2022/11/06 08:03:29;;;;;;;9.33;7.20;;;8.00;99.90;;;-141.84;69.17;19078.19;5032272;28;20280;-63
2022/11/06 08:05:58;;;;;;;7.40;6.50;;;8.20;99.90;;;-141.84;68.15;19098.50;5032422;28;20661;-63
2022/11/06 08:08:28;;;;;;;8.30;6.73;;;8.30;99.90;;;-141.84;68.78;19108.69;5031764;28;20238;-64
2022/11/06 08:10:56;;;;;;;8.23;6.30;;;8.30;99.90;;;-141.84;67.94;19106.66;5032205;28;20345;-63
2022/11/06 08:13:24;;;;;;;7.17;6.30;;;8.40;99.90;;;-141.84;67.65;19106.66;5032139;28;20222;-62
2022/11/06 08:15:52;;;;;;;8.60;6.47;;;8.50;99.90;;;-141.84;67.63;19135.09;5032307;28;20213;-62
2022/11/06 08:18:20;;;;;;;8.43;6.10;;;8.40;99.90;;;-141.84;67.35;19169.63;5031938;28;20230;-63
2022/11/06 08:20:49;;;;;;;9.10;6.30;;;8.50;99.90;;;-141.84;67.69;19155.41;5032073;28;20759;-64
2022/11/06 08:23:17;;;;;;;7.17;6.47;;;8.50;99.90;;;-141.84;67.23;19147.28;5032333;28;20230;-64
2022/11/06 08:25:46;;;;;;;10.53;6.77;;;8.60;99.90;;;-141.84;67.66;19161.50;5031904;28;20226;-63
2022/11/06 08:28:14;;;;;;;8.23;6.00;;;8.70;99.90;;;-141.84;66.57;19171.66;5031712;28;20212;-65
2022/11/06 08:30:43;;;;;;;8.80;6.60;;;8.70;99.90;;;-141.84;66.91;19187.91;5032130;28;20232;-64
2022/11/06 08:33:11;;;;;;;8.87;6.70;;;8.70;99.90;;;-141.84;66.52;19163.53;5031928;28;20296;-63
2022/11/06 08:35:39;;;;;;;11.50;7.00;;;8.80;99.90;;;-141.84;66.47;19179.78;5031719;28;20295;-63
2022/11/06 08:38:07;;;;;;;7.63;6.50;;;8.80;99.90;;;-141.84;66.71;19171.66;5031328;28;20237;-63
2022/11/06 08:40:38;;;;;;;7.47;6.50;;;8.80;99.90;;;-141.84;66.30;19179.78;5031435;28;20229;-63
2022/11/06 08:43:10;;;;;;;7.83;5.90;;;8.80;99.90;;;-141.84;66.00;19179.78;5032114;28;20605;-64
2022/11/06 08:45:41;;;;;;;8.53;6.50;;;8.90;99.90;;;-141.84;66.21;19183.84;5031464;28;20249;-63
2022/11/06 08:48:10;;;;;;;8.50;6.57;;;9.00;99.90;;;-141.84;65.54;19228.56;5031584;28;20327;-63
2022/11/06 08:50:40;;;;;;;7.33;6.37;;;9.10;99.90;;;-141.84;65.67;19200.13;5031365;28;20262;-63
2022/11/06 08:53:08;;;;;;;7.27;6.10;;;9.10;99.90;;;-141.84;65.95;19206.22;5031582;28;20234;-63
2022/11/06 08:55:39;;;;;;;9.33;6.80;;;9.10;99.90;;;-141.84;66.63;19189.97;5031337;28;20232;-63
2022/11/06 08:58:08;;;;;;;8.00;6.17;;;9.10;99.90;;;-141.84;66.09;19230.59;5031908;28;20194;-64
2022/11/06 09:00:37;;;;;;;7.40;6.60;;;9.20;99.90;;;-141.84;64.37;19297.66;5031303;28;20222;-62
2022/11/06 09:03:09;;;;;;;8.83;6.30;;;9.30;99.90;;;-141.84;64.46;19269.22;5031041;28;20229;-65
2022/11/06 09:05:40;;;;;;;9.07;6.30;;;9.40;99.90;;;-141.84;64.69;19257.00;5031621;28;20262;-63
2022/11/06 09:08:09;;;;;;;9.30;6.23;;;9.50;99.90;;;-141.84;64.13;19287.50;5031249;28;20229;-64
2022/11/06 09:10:40;;;;;;;7.10;5.80;;;9.60;99.90;;;-141.84;63.80;19328.13;5030614;28;20226;-62
2022/11/06 09:13:11;;;;;;;9.17;6.40;;;9.60;99.90;;;-141.84;63.75;19336.25;5031660;28;20230;-62
2022/11/06 09:15:40;;;;;;;7.43;5.50;;;9.60;99.90;;;-141.84;64.24;19305.78;5031097;28;20242;-63
2022/11/06 09:18:10;;;;;;;9.50;5.97;;;9.60;99.90;;;-141.84;63.78;19328.13;5030476;28;20245;-64
2022/11/06 09:20:38;;;;;;;7.10;5.47;;;9.70;99.90;;;-141.84;62.21;19340.31;5030343;28;20229;-63
2022/11/06 09:23:08;;;;;;;6.50;5.80;;;9.80;99.90;;;-141.84;61.87;19378.94;5030990;28;20222;-64
2022/11/06 09:25:36;;;;;;;6.87;5.73;;;9.90;99.90;;;-141.84;62.05;19383.00;5030533;28;20645;-64
2022/11/06 09:28:04;;;;;;;9.87;5.73;;;10.10;99.90;;;-141.84;62.42;19387.06;5031171;28;20206;-64
2022/11/06 09:30:34;;;;;;;8.77;5.50;;;10.20;99.90;;;-141.84;61.56;19427.72;5030439;28;20321;-64
2022/11/06 09:33:02;;;;;;;7.00;5.97;;;10.30;99.90;;;-141.84;61.32;19450.06;5030726;28;20248;-64
2022/11/06 09:35:36;;;;;;;6.97;5.20;;;10.40;99.90;;;-141.84;60.74;19423.66;5030661;28;20241;-63
2022/11/06 09:38:07;;;;;;;6.00;5.17;;;10.40;99.90;;;-141.84;61.29;19443.97;5029914;28;20573;-63
2022/11/06 09:40:39;;;;;;;6.23;5.53;;;10.40;99.90;;;-141.84;61.01;19454.13;5029395;28;20225;-62
2022/11/06 09:43:25;;;;;;;6.20;4.97;;;10.30;99.90;;;-141.84;61.36;19433.81;5031211;28;20228;-63
2022/11/06 09:46:24;;;;;;;7.90;5.10;;;10.20;99.90;;;-141.84;61.39;19397.22;5010221;28;20730;-63
2022/11/06 09:49:00;;;;;;;6.93;4.93;;;10.10;99.90;;;-141.84;61.43;19399.25;5010929;28;20187;-63
2022/11/06 09:51:37;;;;;;;6.30;5.27;;;10.20;99.90;;;-141.84;61.85;19419.59;5009716;28;20230;-62
2022/11/06 09:54:14;;;;;;;5.93;5.20;;;10.10;99.90;;;-141.84;61.16;19474.44;5010513;28;20443;-62
2022/11/06 09:56:46;;;;;;;6.57;5.07;;;10.30;99.90;;;-141.84;60.83;19472.41;5008903;28;20237;-62
2022/11/06 09:59:20;;;;;;;6.30;5.07;;;10.40;99.90;;;-141.84;60.78;19452.09;5010656;28;20226;-62
2022/11/06 10:01:56;;;;;;;6.20;4.83;;;10.40;99.90;;;-141.84;61.04;19488.69;5011105;28;20275;-65
2022/11/06 10:04:39;;;;;;;6.50;4.80;;;10.40;99.90;;;-141.84;60.51;19456.16;5011054;28;20651;-64
2022/11/06 10:07:27;;;;;;;7.37;4.83;;;10.50;99.90;;;-141.84;60.62;19517.13;5011614;28;20207;-64
2022/11/06 10:09:55;;;;;;;7.90;4.87;;;10.60;99.90;;;-141.84;59.01;19529.31;5011734;28;20685;-63
2022/11/06 10:12:39;;;;;;;5.83;4.93;;;10.70;99.90;;;-141.84;59.49;19525.25;5028711;28;20233;-65
2022/11/06 10:15:22;;;;;;;7.47;5.17;;;10.80;99.90;;;-141.84;59.45;19519.16;5031182;28;20317;-65
2022/11/06 10:18:04;;;;;;;5.70;4.90;;;10.70;99.90;;;-141.84;59.36;19517.13;5030225;28;20224;-64
2022/11/06 10:20:46;;;;;;;7.50;4.40;;;10.70;99.90;;;-141.84;59.10;19547.59;5027865;28;20704;-63
2022/11/06 10:23:23;;;;;;;6.53;4.43;;;10.70;99.90;;;-141.84;59.56;19511.03;5029340;28;20701;-65
2022/11/06 10:26:09;;;;;;;6.53;4.50;;;10.70;99.90;;;-141.84;59.19;19533.38;5031146;28;20716;-63
2022/11/06 10:29:13;;;;;;;6.77;4.40;;;10.70;99.90;;;-141.84;58.92;19557.78;5031344;28;20295;-64
2022/11/06 10:31:57;;;;;;;7.07;4.43;;;11.00;99.90;;;-141.84;59.22;19586.22;5034545;28;20229;-64
2022/11/06 10:34:33;;;;;;;5.80;4.70;;;10.90;99.90;;;-141.84;58.70;19612.63;5034784;28;20712;-63
2022/11/06 10:37:08;;;;;;;5.20;4.43;;;11.00;99.90;;;-141.84;57.15;19639.06;5033182;28;20405;-64
2022/11/06 10:39:37;;;;;;;5.80;4.10;;;11.30;99.90;;;-141.84;57.05;19632.97;5028368;28;20234;-64
2022/11/06 10:42:14;;;;;;;4.77;4.17;;;11.40;99.90;;;-141.84;57.46;19618.75;5015047;28;20227;-64
2022/11/06 10:44:50;;;;;;;5.60;4.40;;;11.40;99.90;;;-141.84;57.50;19667.50;5015340;28;20234;-65